sensor_id;sensor_type;location;lat;lon;timestamp;P1;durP1;ratioP1;P2;durP2;ratioP2
80623;SDS011;70269;44.768;9.600;2023-05-29T00:00:05;14.05;;;7.80;;
80623;SDS011;70269;44.768;9.600;2023-05-29T00:02:38;13.98;;;7.97;;
80623;SDS011;70269;44.768;9.600;2023-05-29T00:05:03;12.45;;;8.02;;
80623;SDS011;70269;44.768;9.600;2023-05-29T00:07:31;13.43;;;7.22;;
80623;SDS011;70269;44.768;9.600;2023-05-29T00:10:00;13.82;;;8.43;;
80623;SDS011;70269;44.768;9.600;2023-05-29T00:12:25;13.50;;;8.02;;
80623;SDS011;70269;44.768;9.600;2023-05-29T00:14:51;13.27;;;8.52;;
80623;SDS011;70269;44.768;9.600;2023-05-29T00:17:16;11.68;;;8.30;;
80623;SDS011;70269;44.768;9.600;2023-05-29T00:19:42;11.98;;;8.27;;
80623;SDS011;70269;44.768;9.600;2023-05-29T00:22:08;13.77;;;7.63;;
80623;SDS011;70269;44.768;9.600;2023-05-29T00:24:34;13.98;;;8.35;;
80623;SDS011;70269;44.768;9.600;2023-05-29T00:26:59;11.55;;;7.88;;
80623;SDS011;70269;44.768;9.600;2023-05-29T00:29:26;12.10;;;7.10;;
80623;SDS011;70269;44.768;9.600;2023-05-29T00:31:53;18.23;;;8.38;;
80623;SDS011;70269;44.768;9.600;2023-05-29T00:34:21;11.90;;;7.63;;
80623;SDS011;70269;44.768;9.600;2023-05-29T00:36:48;14.10;;;7.88;;
80623;SDS011;70269;44.768;9.600;2023-05-29T00:39:14;11.38;;;8.07;;
80623;SDS011;70269;44.768;9.600;2023-05-29T00:41:39;12.80;;;7.68;;
80623;SDS011;70269;44.768;9.600;2023-05-29T00:44:05;13.52;;;8.20;;
80623;SDS011;70269;44.768;9.600;2023-05-29T00:46:31;15.55;;;8.43;;
80623;SDS011;70269;44.768;9.600;2023-05-29T00:48:58;11.70;;;7.60;;
80623;SDS011;70269;44.768;9.600;2023-05-29T00:51:25;15.35;;;8.48;;
80623;SDS011;70269;44.768;9.600;2023-05-29T00:53:52;14.65;;;8.65;;
80623;SDS011;70269;44.768;9.600;2023-05-29T00:56:19;14.18;;;7.85;;
80623;SDS011;70269;44.768;9.600;2023-05-29T00:58:46;13.65;;;8.52;;
80623;SDS011;70269;44.768;9.600;2023-05-29T01:01:14;14.73;;;7.95;;
80623;SDS011;70269;44.768;9.600;2023-05-29T01:03:41;15.90;;;9.20;;
80623;SDS011;70269;44.768;9.600;2023-05-29T01:06:07;15.32;;;8.20;;
80623;SDS011;70269;44.768;9.600;2023-05-29T01:08:35;11.93;;;7.47;;
80623;SDS011;70269;44.768;9.600;2023-05-29T01:11:05;12.77;;;8.00;;
80623;SDS011;70269;44.768;9.600;2023-05-29T01:13:53;15.82;;;8.80;;
80623;SDS011;70269;44.768;9.600;2023-05-29T01:16:35;16.02;;;8.20;;
80623;SDS011;70269;44.768;9.600;2023-05-29T01:24:52;13.13;;;8.63;;
80623;SDS011;70269;44.768;9.600;2023-05-29T01:27:27;19.75;;;8.35;;
80623;SDS011;70269;44.768;9.600;2023-05-29T01:32:23;13.68;;;8.27;;
80623;SDS011;70269;44.768;9.600;2023-05-29T01:34:51;14.43;;;7.95;;
80623;SDS011;70269;44.768;9.600;2023-05-29T01:37:16;12.45;;;7.95;;
80623;SDS011;70269;44.768;9.600;2023-05-29T01:39:42;16.75;;;8.48;;
80623;SDS011;70269;44.768;9.600;2023-05-29T01:42:08;12.20;;;7.70;;
80623;SDS011;70269;44.768;9.600;2023-05-29T01:44:34;12.43;;;7.68;;
80623;SDS011;70269;44.768;9.600;2023-05-29T01:47:01;15.07;;;8.43;;
80623;SDS011;70269;44.768;9.600;2023-05-29T01:49:28;12.77;;;8.05;;
80623;SDS011;70269;44.768;9.600;2023-05-29T01:51:54;13.02;;;7.60;;
80623;SDS011;70269;44.768;9.600;2023-05-29T01:54:20;12.57;;;8.68;;
80623;SDS011;70269;44.768;9.600;2023-05-29T01:56:46;14.25;;;8.43;;
80623;SDS011;70269;44.768;9.600;2023-05-29T01:59:13;16.20;;;8.55;;
80623;SDS011;70269;44.768;9.600;2023-05-29T02:01:39;13.57;;;8.30;;
80623;SDS011;70269;44.768;9.600;2023-05-29T02:04:05;14.02;;;8.57;;
80623;SDS011;70269;44.768;9.600;2023-05-29T02:06:31;13.05;;;7.78;;
80623;SDS011;70269;44.768;9.600;2023-05-29T02:08:58;13.40;;;8.15;;
80623;SDS011;70269;44.768;9.600;2023-05-29T02:11:24;13.15;;;8.38;;
80623;SDS011;70269;44.768;9.600;2023-05-29T02:13:51;16.40;;;8.30;;
80623;SDS011;70269;44.768;9.600;2023-05-29T02:16:17;12.45;;;7.88;;
80623;SDS011;70269;44.768;9.600;2023-05-29T02:18:45;10.50;;;7.22;;
80623;SDS011;70269;44.768;9.600;2023-05-29T02:21:11;14.38;;;8.63;;
80623;SDS011;70269;44.768;9.600;2023-05-29T02:23:38;16.58;;;8.55;;
80623;SDS011;70269;44.768;9.600;2023-05-29T02:26:03;11.10;;;7.47;;
80623;SDS011;70269;44.768;9.600;2023-05-29T02:28:29;11.80;;;7.50;;
80623;SDS011;70269;44.768;9.600;2023-05-29T02:30:55;15.90;;;9.15;;
80623;SDS011;70269;44.768;9.600;2023-05-29T02:33:20;11.90;;;7.80;;
80623;SDS011;70269;44.768;9.600;2023-05-29T02:35:46;13.55;;;8.82;;
80623;SDS011;70269;44.768;9.600;2023-05-29T02:38:12;17.65;;;8.13;;
80623;SDS011;70269;44.768;9.600;2023-05-29T02:40:39;15.55;;;7.75;;
80623;SDS011;70269;44.768;9.600;2023-05-29T02:43:05;12.35;;;7.65;;
80623;SDS011;70269;44.768;9.600;2023-05-29T02:45:31;13.60;;;7.88;;
80623;SDS011;70269;44.768;9.600;2023-05-29T02:47:59;13.63;;;8.50;;
80623;SDS011;70269;44.768;9.600;2023-05-29T02:50:25;14.10;;;8.48;;
80623;SDS011;70269;44.768;9.600;2023-05-29T02:52:51;15.55;;;9.48;;
80623;SDS011;70269;44.768;9.600;2023-05-29T02:55:17;16.00;;;9.05;;
80623;SDS011;70269;44.768;9.600;2023-05-29T02:57:42;12.63;;;7.57;;
80623;SDS011;70269;44.768;9.600;2023-05-29T03:00:08;12.07;;;7.70;;
80623;SDS011;70269;44.768;9.600;2023-05-29T03:02:34;12.70;;;8.02;;
80623;SDS011;70269;44.768;9.600;2023-05-29T03:05:00;14.38;;;8.32;;
80623;SDS011;70269;44.768;9.600;2023-05-29T03:07:26;15.73;;;8.82;;
80623;SDS011;70269;44.768;9.600;2023-05-29T03:09:51;14.13;;;8.35;;
80623;SDS011;70269;44.768;9.600;2023-05-29T03:12:17;13.75;;;8.05;;
80623;SDS011;70269;44.768;9.600;2023-05-29T03:14:44;13.88;;;8.30;;
80623;SDS011;70269;44.768;9.600;2023-05-29T03:17:11;18.45;;;8.50;;
80623;SDS011;70269;44.768;9.600;2023-05-29T03:19:37;14.52;;;7.72;;
80623;SDS011;70269;44.768;9.600;2023-05-29T03:22:03;14.70;;;7.68;;
80623;SDS011;70269;44.768;9.600;2023-05-29T03:24:31;16.02;;;8.40;;
80623;SDS011;70269;44.768;9.600;2023-05-29T03:27:01;11.93;;;7.55;;
80623;SDS011;70269;44.768;9.600;2023-05-29T03:29:31;12.07;;;7.75;;
80623;SDS011;70269;44.768;9.600;2023-05-29T03:31:57;11.18;;;7.63;;
80623;SDS011;70269;44.768;9.600;2023-05-29T03:34:27;12.93;;;7.68;;
80623;SDS011;70269;44.768;9.600;2023-05-29T03:36:57;11.13;;;7.47;;
80623;SDS011;70269;44.768;9.600;2023-05-29T03:39:23;12.18;;;8.13;;
80623;SDS011;70269;44.768;9.600;2023-05-29T03:41:49;14.23;;;7.75;;
80623;SDS011;70269;44.768;9.600;2023-05-29T03:44:15;15.98;;;7.90;;
80623;SDS011;70269;44.768;9.600;2023-05-29T03:46:40;12.88;;;7.55;;
80623;SDS011;70269;44.768;9.600;2023-05-29T03:49:06;16.55;;;8.10;;
80623;SDS011;70269;44.768;9.600;2023-05-29T03:51:33;15.07;;;8.35;;
80623;SDS011;70269;44.768;9.600;2023-05-29T03:53:59;12.77;;;7.32;;
80623;SDS011;70269;44.768;9.600;2023-05-29T03:56:25;15.20;;;8.63;;
80623;SDS011;70269;44.768;9.600;2023-05-29T03:58:52;15.70;;;6.97;;
80623;SDS011;70269;44.768;9.600;2023-05-29T04:01:18;12.05;;;7.90;;
80623;SDS011;70269;44.768;9.600;2023-05-29T04:03:43;15.18;;;7.90;;
80623;SDS011;70269;44.768;9.600;2023-05-29T04:06:10;13.70;;;8.13;;
80623;SDS011;70269;44.768;9.600;2023-05-29T04:08:36;12.15;;;7.10;;
80623;SDS011;70269;44.768;9.600;2023-05-29T04:11:02;13.43;;;8.65;;
80623;SDS011;70269;44.768;9.600;2023-05-29T04:13:28;13.00;;;7.95;;
80623;SDS011;70269;44.768;9.600;2023-05-29T04:15:54;12.88;;;7.75;;
80623;SDS011;70269;44.768;9.600;2023-05-29T04:18:21;11.60;;;7.75;;
80623;SDS011;70269;44.768;9.600;2023-05-29T04:20:47;10.23;;;6.63;;
80623;SDS011;70269;44.768;9.600;2023-05-29T04:23:13;13.25;;;7.30;;
80623;SDS011;70269;44.768;9.600;2023-05-29T04:25:39;10.52;;;6.28;;
80623;SDS011;70269;44.768;9.600;2023-05-29T04:28:04;9.93;;;6.68;;
80623;SDS011;70269;44.768;9.600;2023-05-29T04:30:31;12.00;;;6.22;;
80623;SDS011;70269;44.768;9.600;2023-05-29T04:32:59;10.57;;;6.50;;
80623;SDS011;70269;44.768;9.600;2023-05-29T04:35:25;10.48;;;6.57;;
80623;SDS011;70269;44.768;9.600;2023-05-29T04:37:59;10.32;;;6.28;;
80623;SDS011;70269;44.768;9.600;2023-05-29T04:40:29;10.55;;;5.72;;
80623;SDS011;70269;44.768;9.600;2023-05-29T04:42:57;12.98;;;6.90;;
80623;SDS011;70269;44.768;9.600;2023-05-29T04:45:29;10.88;;;6.63;;
80623;SDS011;70269;44.768;9.600;2023-05-29T04:47:55;11.57;;;5.60;;
80623;SDS011;70269;44.768;9.600;2023-05-29T04:50:21;13.48;;;6.63;;
80623;SDS011;70269;44.768;9.600;2023-05-29T04:52:48;12.10;;;6.10;;
80623;SDS011;70269;44.768;9.600;2023-05-29T04:55:14;9.77;;;6.07;;
80623;SDS011;70269;44.768;9.600;2023-05-29T04:57:41;9.43;;;5.97;;
80623;SDS011;70269;44.768;9.600;2023-05-29T05:00:09;9.88;;;6.30;;
80623;SDS011;70269;44.768;9.600;2023-05-29T05:02:39;10.82;;;6.68;;
80623;SDS011;70269;44.768;9.600;2023-05-29T05:05:07;10.20;;;5.97;;
80623;SDS011;70269;44.768;9.600;2023-05-29T05:07:33;12.75;;;6.38;;
80623;SDS011;70269;44.768;9.600;2023-05-29T05:10:00;8.75;;;5.75;;
80623;SDS011;70269;44.768;9.600;2023-05-29T05:12:26;10.40;;;5.97;;
80623;SDS011;70269;44.768;9.600;2023-05-29T05:14:52;9.13;;;6.05;;
80623;SDS011;70269;44.768;9.600;2023-05-29T05:17:18;9.32;;;5.72;;
80623;SDS011;70269;44.768;9.600;2023-05-29T05:19:45;9.95;;;5.53;;
80623;SDS011;70269;44.768;9.600;2023-05-29T05:22:11;10.70;;;5.80;;
80623;SDS011;70269;44.768;9.600;2023-05-29T05:24:37;11.38;;;6.85;;
80623;SDS011;70269;44.768;9.600;2023-05-29T05:27:03;14.48;;;5.78;;
80623;SDS011;70269;44.768;9.600;2023-05-29T05:29:29;9.77;;;5.90;;
80623;SDS011;70269;44.768;9.600;2023-05-29T05:31:56;9.23;;;6.05;;
80623;SDS011;70269;44.768;9.600;2023-05-29T05:34:22;10.73;;;5.93;;
80623;SDS011;70269;44.768;9.600;2023-05-29T05:36:48;11.57;;;5.65;;
80623;SDS011;70269;44.768;9.600;2023-05-29T05:39:14;10.32;;;5.93;;
80623;SDS011;70269;44.768;9.600;2023-05-29T05:41:43;9.98;;;6.10;;
80623;SDS011;70269;44.768;9.600;2023-05-29T05:44:12;10.55;;;5.28;;
80623;SDS011;70269;44.768;9.600;2023-05-29T05:46:43;10.93;;;6.05;;
80623;SDS011;70269;44.768;9.600;2023-05-29T05:49:08;10.70;;;5.60;;
80623;SDS011;70269;44.768;9.600;2023-05-29T05:51:35;11.02;;;6.20;;
80623;SDS011;70269;44.768;9.600;2023-05-29T05:54:00;12.95;;;6.32;;
80623;SDS011;70269;44.768;9.600;2023-05-29T05:56:27;9.45;;;5.82;;
80623;SDS011;70269;44.768;9.600;2023-05-29T05:58:52;11.20;;;6.40;;
80623;SDS011;70269;44.768;9.600;2023-05-29T06:01:19;11.30;;;6.30;;
80623;SDS011;70269;44.768;9.600;2023-05-29T06:03:45;8.77;;;5.88;;
80623;SDS011;70269;44.768;9.600;2023-05-29T06:06:11;12.70;;;7.05;;
80623;SDS011;70269;44.768;9.600;2023-05-29T06:08:39;11.15;;;6.38;;
80623;SDS011;70269;44.768;9.600;2023-05-29T06:11:06;13.88;;;6.57;;
80623;SDS011;70269;44.768;9.600;2023-05-29T06:13:35;11.75;;;6.00;;
80623;SDS011;70269;44.768;9.600;2023-05-29T06:16:08;10.15;;;5.63;;
80623;SDS011;70269;44.768;9.600;2023-05-29T06:18:34;13.55;;;6.75;;
80623;SDS011;70269;44.768;9.600;2023-05-29T06:21:00;9.30;;;5.93;;
80623;SDS011;70269;44.768;9.600;2023-05-29T06:23:26;11.80;;;6.38;;
80623;SDS011;70269;44.768;9.600;2023-05-29T06:25:52;11.40;;;5.85;;
80623;SDS011;70269;44.768;9.600;2023-05-29T06:28:18;9.45;;;6.05;;
80623;SDS011;70269;44.768;9.600;2023-05-29T06:30:45;10.45;;;5.88;;
80623;SDS011;70269;44.768;9.600;2023-05-29T06:33:11;9.10;;;5.90;;
80623;SDS011;70269;44.768;9.600;2023-05-29T06:35:38;10.57;;;6.35;;
80623;SDS011;70269;44.768;9.600;2023-05-29T06:38:05;11.55;;;6.38;;
80623;SDS011;70269;44.768;9.600;2023-05-29T06:40:31;10.00;;;5.75;;
80623;SDS011;70269;44.768;9.600;2023-05-29T06:42:57;11.90;;;7.10;;
80623;SDS011;70269;44.768;9.600;2023-05-29T06:45:36;11.57;;;6.20;;
80623;SDS011;70269;44.768;9.600;2023-05-29T06:48:01;12.55;;;7.57;;
80623;SDS011;70269;44.768;9.600;2023-05-29T06:50:27;13.05;;;7.70;;
80623;SDS011;70269;44.768;9.600;2023-05-29T06:52:54;14.07;;;7.25;;
80623;SDS011;70269;44.768;9.600;2023-05-29T06:55:27;13.38;;;7.97;;
80623;SDS011;70269;44.768;9.600;2023-05-29T06:57:55;16.23;;;9.15;;
80623;SDS011;70269;44.768;9.600;2023-05-29T07:00:22;16.38;;;10.48;;
80623;SDS011;70269;44.768;9.600;2023-05-29T07:03:18;14.52;;;8.68;;
80623;SDS011;70269;44.768;9.600;2023-05-29T07:05:44;17.95;;;10.13;;
80623;SDS011;70269;44.768;9.600;2023-05-29T07:08:10;19.25;;;12.40;;
80623;SDS011;70269;44.768;9.600;2023-05-29T07:10:35;24.52;;;12.60;;
80623;SDS011;70269;44.768;9.600;2023-05-29T07:13:01;21.98;;;13.00;;
80623;SDS011;70269;44.768;9.600;2023-05-29T07:15:27;23.75;;;13.98;;
80623;SDS011;70269;44.768;9.600;2023-05-29T07:17:52;22.95;;;13.88;;
80623;SDS011;70269;44.768;9.600;2023-05-29T07:20:23;23.00;;;13.57;;
80623;SDS011;70269;44.768;9.600;2023-05-29T07:22:48;22.80;;;13.77;;
80623;SDS011;70269;44.768;9.600;2023-05-29T07:25:14;24.20;;;14.07;;
80623;SDS011;70269;44.768;9.600;2023-05-29T07:27:40;21.25;;;13.68;;
80623;SDS011;70269;44.768;9.600;2023-05-29T07:30:06;27.77;;;15.70;;
80623;SDS011;70269;44.768;9.600;2023-05-29T07:32:33;24.77;;;13.90;;
80623;SDS011;70269;44.768;9.600;2023-05-29T07:34:59;22.02;;;13.55;;
80623;SDS011;70269;44.768;9.600;2023-05-29T07:37:25;25.48;;;13.60;;
80623;SDS011;70269;44.768;9.600;2023-05-29T07:39:51;25.55;;;14.57;;
80623;SDS011;70269;44.768;9.600;2023-05-29T07:42:49;23.02;;;13.77;;
80623;SDS011;70269;44.768;9.600;2023-05-29T07:45:15;24.30;;;15.73;;
80623;SDS011;70269;44.768;9.600;2023-05-29T07:47:41;23.95;;;15.38;;
80623;SDS011;70269;44.768;9.600;2023-05-29T07:50:07;21.63;;;15.30;;
80623;SDS011;70269;44.768;9.600;2023-05-29T07:52:34;25.38;;;14.85;;
80623;SDS011;70269;44.768;9.600;2023-05-29T07:55:00;22.55;;;15.10;;
80623;SDS011;70269;44.768;9.600;2023-05-29T07:57:27;22.50;;;13.82;;
80623;SDS011;70269;44.768;9.600;2023-05-29T07:59:55;25.60;;;15.57;;
80623;SDS011;70269;44.768;9.600;2023-05-29T08:02:21;25.73;;;15.10;;
80623;SDS011;70269;44.768;9.600;2023-05-29T08:05:25;22.23;;;15.00;;
80623;SDS011;70269;44.768;9.600;2023-05-29T08:07:51;23.63;;;14.07;;
80623;SDS011;70269;44.768;9.600;2023-05-29T08:10:17;22.15;;;14.38;;
80623;SDS011;70269;44.768;9.600;2023-05-29T08:12:43;28.65;;;16.40;;
80623;SDS011;70269;44.768;9.600;2023-05-29T08:15:08;23.63;;;14.25;;
80623;SDS011;70269;44.768;9.600;2023-05-29T08:17:36;21.42;;;14.27;;
80623;SDS011;70269;44.768;9.600;2023-05-29T08:20:02;25.25;;;14.20;;
80623;SDS011;70269;44.768;9.600;2023-05-29T08:22:32;24.50;;;13.27;;
80623;SDS011;70269;44.768;9.600;2023-05-29T08:24:59;20.25;;;13.63;;
80623;SDS011;70269;44.768;9.600;2023-05-29T08:27:24;23.13;;;14.00;;
80623;SDS011;70269;44.768;9.600;2023-05-29T08:29:50;24.38;;;13.70;;
80623;SDS011;70269;44.768;9.600;2023-05-29T08:32:16;21.15;;;14.15;;
80623;SDS011;70269;44.768;9.600;2023-05-29T08:34:41;23.63;;;14.23;;
80623;SDS011;70269;44.768;9.600;2023-05-29T08:37:07;21.98;;;13.32;;
80623;SDS011;70269;44.768;9.600;2023-05-29T08:39:32;21.35;;;13.27;;
80623;SDS011;70269;44.768;9.600;2023-05-29T08:42:01;21.10;;;13.50;;
80623;SDS011;70269;44.768;9.600;2023-05-29T08:44:30;22.83;;;12.40;;
80623;SDS011;70269;44.768;9.600;2023-05-29T08:49:26;21.88;;;12.50;;
80623;SDS011;70269;44.768;9.600;2023-05-29T08:52:01;20.67;;;13.85;;
80623;SDS011;70269;44.768;9.600;2023-05-29T08:54:31;19.20;;;11.88;;
80623;SDS011;70269;44.768;9.600;2023-05-29T08:56:57;17.65;;;11.15;;
80623;SDS011;70269;44.768;9.600;2023-05-29T08:59:24;18.60;;;11.75;;
80623;SDS011;70269;44.768;9.600;2023-05-29T09:01:51;20.30;;;12.13;;
80623;SDS011;70269;44.768;9.600;2023-05-29T09:04:16;18.35;;;11.80;;
80623;SDS011;70269;44.768;9.600;2023-05-29T09:06:42;19.17;;;12.48;;
80623;SDS011;70269;44.768;9.600;2023-05-29T09:09:08;14.90;;;10.32;;
80623;SDS011;70269;44.768;9.600;2023-05-29T09:11:34;16.52;;;9.82;;
80623;SDS011;70269;44.768;9.600;2023-05-29T09:14:00;16.63;;;10.70;;
80623;SDS011;70269;44.768;9.600;2023-05-29T09:16:27;17.15;;;10.32;;
80623;SDS011;70269;44.768;9.600;2023-05-29T09:19:01;16.10;;;10.13;;
80623;SDS011;70269;44.768;9.600;2023-05-29T09:21:30;17.38;;;10.85;;
80623;SDS011;70269;44.768;9.600;2023-05-29T09:24:04;15.65;;;10.15;;
80623;SDS011;70269;44.768;9.600;2023-05-29T09:26:31;15.23;;;9.45;;
80623;SDS011;70269;44.768;9.600;2023-05-29T09:28:58;13.65;;;9.52;;
80623;SDS011;70269;44.768;9.600;2023-05-29T09:31:24;16.05;;;9.35;;
80623;SDS011;70269;44.768;9.600;2023-05-29T09:33:49;14.05;;;9.77;;
80623;SDS011;70269;44.768;9.600;2023-05-29T09:36:22;14.85;;;8.88;;
80623;SDS011;70269;44.768;9.600;2023-05-29T09:38:48;14.38;;;8.63;;
80623;SDS011;70269;44.768;9.600;2023-05-29T09:41:20;15.50;;;8.60;;
80623;SDS011;70269;44.768;9.600;2023-05-29T09:43:48;12.90;;;8.82;;
80623;SDS011;70269;44.768;9.600;2023-05-29T09:46:16;13.70;;;8.20;;
80623;SDS011;70269;44.768;9.600;2023-05-29T09:48:43;11.95;;;7.93;;
80623;SDS011;70269;44.768;9.600;2023-05-29T09:51:19;14.55;;;7.78;;
80623;SDS011;70269;44.768;9.600;2023-05-29T09:53:48;12.93;;;7.47;;
80623;SDS011;70269;44.768;9.600;2023-05-29T09:56:15;12.82;;;8.15;;
80623;SDS011;70269;44.768;9.600;2023-05-29T09:58:42;12.68;;;7.10;;
80623;SDS011;70269;44.768;9.600;2023-05-29T10:01:14;12.07;;;7.38;;
80623;SDS011;70269;44.768;9.600;2023-05-29T10:03:41;12.48;;;7.82;;
80623;SDS011;70269;44.768;9.600;2023-05-29T10:06:07;11.10;;;8.02;;
80623;SDS011;70269;44.768;9.600;2023-05-29T10:08:44;14.82;;;9.25;;
80623;SDS011;70269;44.768;9.600;2023-05-29T10:11:14;12.02;;;7.97;;
80623;SDS011;70269;44.768;9.600;2023-05-29T10:13:49;11.52;;;7.68;;
80623;SDS011;70269;44.768;9.600;2023-05-29T10:16:17;14.32;;;8.70;;
80623;SDS011;70269;44.768;9.600;2023-05-29T10:18:47;10.02;;;6.28;;
80623;SDS011;70269;44.768;9.600;2023-05-29T10:21:19;13.68;;;7.35;;
80623;SDS011;70269;44.768;9.600;2023-05-29T10:23:47;14.68;;;7.20;;
80623;SDS011;70269;44.768;9.600;2023-05-29T10:26:15;12.13;;;7.28;;
80623;SDS011;70269;44.768;9.600;2023-05-29T10:28:48;11.45;;;7.13;;
80623;SDS011;70269;44.768;9.600;2023-05-29T10:31:21;13.15;;;7.47;;
80623;SDS011;70269;44.768;9.600;2023-05-29T10:37:19;10.68;;;6.82;;
80623;SDS011;70269;44.768;9.600;2023-05-29T10:40:11;11.73;;;6.93;;
80623;SDS011;70269;44.768;9.600;2023-05-29T10:45:03;11.63;;;6.47;;
80623;SDS011;70269;44.768;9.600;2023-05-29T10:47:29;13.40;;;8.00;;
80623;SDS011;70269;44.768;9.600;2023-05-29T10:49:59;11.70;;;7.80;;
80623;SDS011;70269;44.768;9.600;2023-05-29T10:52:25;12.57;;;7.60;;
80623;SDS011;70269;44.768;9.600;2023-05-29T10:54:52;12.73;;;7.70;;
80623;SDS011;70269;44.768;9.600;2023-05-29T10:57:23;11.20;;;6.97;;
80623;SDS011;70269;44.768;9.600;2023-05-29T10:59:59;11.70;;;7.25;;
80623;SDS011;70269;44.768;9.600;2023-05-29T11:02:30;13.23;;;7.05;;
80623;SDS011;70269;44.768;9.600;2023-05-29T11:05:11;13.73;;;7.00;;
80623;SDS011;70269;44.768;9.600;2023-05-29T11:07:50;12.93;;;8.13;;
80623;SDS011;70269;44.768;9.600;2023-05-29T11:10:18;10.23;;;6.55;;
80623;SDS011;70269;44.768;9.600;2023-05-29T11:13:06;13.52;;;7.50;;
80623;SDS011;70269;44.768;9.600;2023-05-29T11:15:32;14.52;;;7.35;;
80623;SDS011;70269;44.768;9.600;2023-05-29T11:18:05;10.93;;;6.72;;
80623;SDS011;70269;44.768;9.600;2023-05-29T11:20:48;13.25;;;7.80;;
80623;SDS011;70269;44.768;9.600;2023-05-29T11:23:18;14.88;;;8.18;;
80623;SDS011;70269;44.768;9.600;2023-05-29T11:25:46;11.75;;;6.78;;
80623;SDS011;70269;44.768;9.600;2023-05-29T11:28:12;11.25;;;7.07;;
80623;SDS011;70269;44.768;9.600;2023-05-29T11:30:42;12.90;;;7.65;;
80623;SDS011;70269;44.768;9.600;2023-05-29T11:33:29;14.90;;;7.72;;
80623;SDS011;70269;44.768;9.600;2023-05-29T11:35:58;12.55;;;7.70;;
80623;SDS011;70269;44.768;9.600;2023-05-29T11:38:25;12.48;;;7.57;;
80623;SDS011;70269;44.768;9.600;2023-05-29T11:40:52;12.98;;;6.55;;
80623;SDS011;70269;44.768;9.600;2023-05-29T11:43:19;11.50;;;6.45;;
80623;SDS011;70269;44.768;9.600;2023-05-29T11:45:45;11.90;;;7.15;;
80623;SDS011;70269;44.768;9.600;2023-05-29T11:48:10;12.77;;;7.50;;
80623;SDS011;70269;44.768;9.600;2023-05-29T11:50:36;12.38;;;7.45;;
80623;SDS011;70269;44.768;9.600;2023-05-29T11:53:02;9.75;;;7.00;;
80623;SDS011;70269;44.768;9.600;2023-05-29T11:55:28;10.70;;;6.50;;
80623;SDS011;70269;44.768;9.600;2023-05-29T11:57:57;12.50;;;7.07;;
80623;SDS011;70269;44.768;9.600;2023-05-29T12:00:24;11.18;;;6.85;;
80623;SDS011;70269;44.768;9.600;2023-05-29T12:02:50;11.52;;;6.85;;
80623;SDS011;70269;44.768;9.600;2023-05-29T12:05:17;12.23;;;6.97;;
80623;SDS011;70269;44.768;9.600;2023-05-29T12:07:47;11.40;;;6.70;;
80623;SDS011;70269;44.768;9.600;2023-05-29T12:10:17;14.18;;;6.40;;
80623;SDS011;70269;44.768;9.600;2023-05-29T12:12:51;11.93;;;6.70;;
80623;SDS011;70269;44.768;9.600;2023-05-29T12:15:19;12.20;;;6.57;;
80623;SDS011;70269;44.768;9.600;2023-05-29T12:17:46;9.77;;;5.45;;
80623;SDS011;70269;44.768;9.600;2023-05-29T12:20:13;11.02;;;6.40;;
80623;SDS011;70269;44.768;9.600;2023-05-29T12:22:41;9.82;;;5.65;;
80623;SDS011;70269;44.768;9.600;2023-05-29T12:25:12;13.32;;;6.53;;
80623;SDS011;70269;44.768;9.600;2023-05-29T12:27:42;9.77;;;5.57;;
80623;SDS011;70269;44.768;9.600;2023-05-29T12:32:43;11.90;;;5.55;;
80623;SDS011;70269;44.768;9.600;2023-05-29T12:37:44;10.02;;;5.70;;
80623;SDS011;70269;44.768;9.600;2023-05-29T12:40:18;10.75;;;5.68;;
80623;SDS011;70269;44.768;9.600;2023-05-29T12:42:46;12.00;;;6.50;;
80623;SDS011;70269;44.768;9.600;2023-05-29T12:45:13;12.82;;;6.40;;
80623;SDS011;70269;44.768;9.600;2023-05-29T12:50:28;10.93;;;5.53;;
80623;SDS011;70269;44.768;9.600;2023-05-29T12:52:56;11.18;;;7.18;;
80623;SDS011;70269;44.768;9.600;2023-05-29T12:55:23;9.52;;;5.53;;
80623;SDS011;70269;44.768;9.600;2023-05-29T12:57:49;10.32;;;6.18;;
80623;SDS011;70269;44.768;9.600;2023-05-29T13:00:15;8.63;;;5.22;;
80623;SDS011;70269;44.768;9.600;2023-05-29T13:02:40;12.05;;;5.20;;
80623;SDS011;70269;44.768;9.600;2023-05-29T13:05:06;12.63;;;6.03;;
80623;SDS011;70269;44.768;9.600;2023-05-29T13:07:32;9.38;;;5.75;;
80623;SDS011;70269;44.768;9.600;2023-05-29T13:10:01;9.35;;;5.25;;
80623;SDS011;70269;44.768;9.600;2023-05-29T13:12:27;10.30;;;5.18;;
80623;SDS011;70269;44.768;9.600;2023-05-29T13:14:52;9.15;;;5.43;;
80623;SDS011;70269;44.768;9.600;2023-05-29T13:17:21;11.85;;;5.70;;
80623;SDS011;70269;44.768;9.600;2023-05-29T13:19:46;9.07;;;5.80;;
80623;SDS011;70269;44.768;9.600;2023-05-29T13:22:12;11.32;;;5.97;;
80623;SDS011;70269;44.768;9.600;2023-05-29T13:24:37;10.05;;;5.90;;
80623;SDS011;70269;44.768;9.600;2023-05-29T13:27:03;9.25;;;5.18;;
80623;SDS011;70269;44.768;9.600;2023-05-29T13:29:28;10.95;;;5.88;;
80623;SDS011;70269;44.768;9.600;2023-05-29T13:31:54;11.90;;;6.55;;
80623;SDS011;70269;44.768;9.600;2023-05-29T13:34:19;11.02;;;5.32;;
80623;SDS011;70269;44.768;9.600;2023-05-29T13:36:45;11.50;;;5.88;;
80623;SDS011;70269;44.768;9.600;2023-05-29T13:39:10;9.82;;;6.00;;
80623;SDS011;70269;44.768;9.600;2023-05-29T13:41:36;10.63;;;5.45;;
80623;SDS011;70269;44.768;9.600;2023-05-29T13:44:02;11.98;;;5.82;;
80623;SDS011;70269;44.768;9.600;2023-05-29T13:46:28;11.95;;;6.28;;
80623;SDS011;70269;44.768;9.600;2023-05-29T13:48:53;10.23;;;4.97;;
80623;SDS011;70269;44.768;9.600;2023-05-29T13:51:19;11.40;;;5.57;;
80623;SDS011;70269;44.768;9.600;2023-05-29T13:53:44;12.65;;;5.65;;
80623;SDS011;70269;44.768;9.600;2023-05-29T13:56:10;10.00;;;6.60;;
80623;SDS011;70269;44.768;9.600;2023-05-29T13:58:35;11.15;;;6.13;;
80623;SDS011;70269;44.768;9.600;2023-05-29T14:01:01;14.23;;;6.03;;
80623;SDS011;70269;44.768;9.600;2023-05-29T14:03:26;11.40;;;5.55;;
80623;SDS011;70269;44.768;9.600;2023-05-29T14:05:54;11.07;;;5.13;;
80623;SDS011;70269;44.768;9.600;2023-05-29T14:08:20;11.95;;;6.43;;
80623;SDS011;70269;44.768;9.600;2023-05-29T14:10:45;11.35;;;6.68;;
80623;SDS011;70269;44.768;9.600;2023-05-29T14:13:11;10.40;;;5.45;;
80623;SDS011;70269;44.768;9.600;2023-05-29T14:15:36;8.57;;;5.18;;
80623;SDS011;70269;44.768;9.600;2023-05-29T14:18:02;10.75;;;5.40;;
80623;SDS011;70269;44.768;9.600;2023-05-29T14:20:28;11.40;;;6.78;;
80623;SDS011;70269;44.768;9.600;2023-05-29T14:22:54;9.15;;;5.57;;
80623;SDS011;70269;44.768;9.600;2023-05-29T14:25:20;11.38;;;5.32;;
80623;SDS011;70269;44.768;9.600;2023-05-29T14:27:45;11.50;;;6.00;;
80623;SDS011;70269;44.768;9.600;2023-05-29T14:30:11;9.65;;;5.57;;
80623;SDS011;70269;44.768;9.600;2023-05-29T14:32:36;13.40;;;6.35;;
80623;SDS011;70269;44.768;9.600;2023-05-29T14:35:02;9.95;;;5.93;;
80623;SDS011;70269;44.768;9.600;2023-05-29T14:37:28;11.40;;;5.72;;
80623;SDS011;70269;44.768;9.600;2023-05-29T14:39:53;9.90;;;5.90;;
80623;SDS011;70269;44.768;9.600;2023-05-29T14:42:18;9.02;;;5.65;;
80623;SDS011;70269;44.768;9.600;2023-05-29T14:44:44;10.73;;;6.50;;
80623;SDS011;70269;44.768;9.600;2023-05-29T14:47:09;12.00;;;6.55;;
80623;SDS011;70269;44.768;9.600;2023-05-29T14:49:35;9.25;;;5.43;;
80623;SDS011;70269;44.768;9.600;2023-05-29T14:52:01;8.70;;;4.95;;
80623;SDS011;70269;44.768;9.600;2023-05-29T14:56:54;9.95;;;5.90;;
80623;SDS011;70269;44.768;9.600;2023-05-29T14:59:20;8.07;;;4.85;;
80623;SDS011;70269;44.768;9.600;2023-05-29T15:01:46;9.38;;;5.53;;